Time;durP1;ratioP1;P1;durP2;ratioP2;P2;SDS_P1;SDS_P2;PMS_P1;PMS_P2;Temp;Humidity;BMP_temperature;BMP_pressure;BME280_temperature;BME280_humidity;BME280_pressure;Samples;Min_cycle;Max_cycle;Signal;HPM_P1;HPM_P2
2022/01/02 00:00:09;;;;;;;197.27;138.10;;;25.50;99.90;;;;;;5014532;28;20018;-75
2022/01/02 00:02:37;;;;;;;65.35;33.80;;;25.50;99.90;;;;;;5014004;28;20018;-74
2022/01/02 00:05:10;;;;;;;126.80;62.20;;;25.60;99.90;;;;;;5012495;28;20026;-74
2022/01/02 00:07:41;;;;;;;;;;;25.50;99.90;;;;;;5014705;28;20025;-74
2022/01/02 00:10:09;;;;;;;44.75;24.08;;;25.60;99.90;;;;;;5015767;28;19913;-77
2022/01/02 00:12:39;;;;;;;38.47;20.42;;;25.70;99.90;;;;;;5010891;28;20029;-76
2022/01/02 00:15:07;;;;;;;44.47;22.88;;;25.80;99.90;;;;;;5012646;28;20014;-79
2022/01/02 00:17:34;;;;;;;29.55;17.50;;;25.80;99.90;;;;;;4997037;28;20076;-77
2022/01/02 00:20:10;;;;;;;30.65;17.65;;;25.70;99.90;;;;;;5015290;28;20022;-77
2022/01/02 00:22:40;;;;;;;34.30;14.90;;;25.70;99.90;;;;;;5015447;28;20080;-76
2022/01/02 00:25:22;;;;;;;19.85;12.65;;;25.70;99.90;;;;;;5011550;28;20419;-76
2022/01/02 00:27:49;;;;;;;;;;;25.60;99.90;;;;;;5012547;28;20117;-79
2022/01/02 00:30:17;;;;;;;25.80;13.35;;;25.70;99.90;;;;;;5015242;28;19921;-76
2022/01/02 00:32:44;;;;;;;20.02;11.48;;;25.70;99.90;;;;;;5015429;28;20467;-76
2022/01/02 00:35:11;;;;;;;17.08;11.95;;;25.70;99.90;;;;;;5010648;28;20212;-77
2022/01/02 00:37:40;;;;;;;27.05;14.80;;;25.80;99.90;;;;;;5012345;28;20033;-75
2022/01/02 00:40:07;;;;;;;25.92;18.30;;;25.70;99.90;;;;;;5014540;28;20017;-81
2022/01/02 00:42:38;;;;;;;28.88;17.85;;;25.70;99.90;;;;;;5014998;28;20026;-79
2022/01/02 00:45:07;;;;;;;25.35;15.60;;;25.60;99.90;;;;;;5014280;28;20386;-81
2022/01/02 00:48:05;;;;;;;28.30;17.00;;;25.60;99.90;;;;;;5014350;28;20069;-79
2022/01/02 00:50:37;;;;;;;33.50;20.83;;;25.60;99.90;;;;;;5013564;28;20022;-78
2022/01/02 00:53:06;;;;;;;33.35;22.15;;;25.70;99.90;;;;;;5012514;28;20040;-82
2022/01/02 00:55:34;;;;;;;33.60;18.02;;;25.70;99.90;;;;;;5012085;28;20049;-78
2022/01/02 00:58:10;;;;;;;33.83;19.90;;;25.70;99.90;;;;;;5012369;28;20379;-76
2022/01/02 01:00:37;;;;;;;42.05;25.58;;;25.70;99.90;;;;;;5013927;28;20022;-78
2022/01/02 01:03:08;;;;;;;154.23;108.47;;;25.70;99.90;;;;;;5012994;28;20025;-76
2022/01/02 01:05:37;;;;;;;52.47;35.08;;;25.80;99.90;;;;;;5013771;28;20116;-74
2022/01/02 01:08:07;;;;;;;55.28;36.42;;;25.90;99.90;;;;;;5010947;28;20082;-76
2022/01/02 01:10:36;;;;;;;40.67;24.98;;;25.90;99.90;;;;;;5013101;28;20608;-77
2022/01/02 01:13:06;;;;;;;39.22;23.80;;;25.90;99.90;;;;;;5014102;28;20029;-80
2022/01/02 01:15:34;;;;;;;34.80;21.33;;;26.00;99.90;;;;;;5014850;28;20117;-76
2022/01/02 01:18:03;;;;;;;19.65;14.57;;;26.00;99.90;;;;;;5013577;28;20386;-76
2022/01/02 01:20:32;;;;;;;31.65;15.45;;;25.90;99.90;;;;;;5012646;28;20072;-77
2022/01/02 01:22:59;;;;;;;40.95;15.60;;;26.00;99.90;;;;;;5014253;28;20105;-71
2022/01/02 01:25:26;;;;;;;27.13;9.77;;;26.00;99.90;;;;;;5013792;28;20099;-71
2022/01/02 01:27:54;;;;;;;19.52;9.75;;;25.90;99.90;;;;;;5013760;28;20030;-74
2022/01/02 01:30:24;;;;;;;24.77;11.55;;;26.00;99.90;;;;;;5013830;28;20033;-74
2022/01/02 01:32:52;;;;;;;19.40;10.75;;;25.90;99.90;;;;;;5008731;28;20356;-74
2022/01/02 01:35:20;;;;;;;14.48;9.80;;;26.00;99.90;;;;;;5014202;28;20034;-73
2022/01/02 01:37:47;;;;;;;13.50;7.90;;;26.00;99.90;;;;;;5013893;28;20018;-74
2022/01/02 01:40:16;;;;;;;22.88;13.70;;;26.00;99.90;;;;;;5014084;28;20030;-72
2022/01/02 01:42:54;;;;;;;20.05;12.93;;;26.00;99.90;;;;;;5013846;28;20018;-74
2022/01/02 01:47:56;;;;;;;23.70;14.07;;;26.10;99.90;;;;;;5011735;28;20057;-72
2022/01/02 01:50:29;;;;;;;29.45;16.20;;;26.10;99.90;;;;;;5010965;28;20033;-72
2022/01/02 01:52:56;;;;;;;19.70;11.48;;;26.10;99.90;;;;;;5012418;28;20038;-72
2022/01/02 01:55:23;;;;;;;15.88;11.18;;;26.20;99.90;;;;;;5013891;28;20034;-72
2022/01/02 01:57:52;;;;;;;22.38;14.93;;;26.10;99.90;;;;;;5013291;28;20072;-70
2022/01/02 02:00:21;;;;;;;23.42;14.05;;;26.20;99.90;;;;;;5013687;28;20113;-71
2022/01/02 02:02:48;;;;;;;21.02;14.98;;;26.20;99.90;;;;;;5013422;28;20041;-68
2022/01/02 02:05:15;;;;;;;17.40;11.32;;;26.20;99.90;;;;;;5013038;28;20042;-70
2022/01/02 02:07:44;;;;;;;20.33;10.02;;;26.30;99.90;;;;;;5012282;28;20048;-71
2022/01/02 02:10:34;;;;;;;12.35;9.63;;;26.30;99.90;;;;;;5012829;28;20076;-68
2022/01/02 02:13:03;;;;;;;14.90;9.90;;;26.40;99.90;;;;;;5012164;28;20033;-69
2022/01/02 02:15:30;;;;;;;16.42;10.00;;;26.40;99.90;;;;;;5013609;28;20018;-69
2022/01/02 02:17:56;;;;;;;18.98;8.32;;;26.50;99.90;;;;;;5007839;28;20101;-69
2022/01/02 02:20:24;;;;;;;13.77;7.40;;;26.50;99.90;;;;;;5010837;28;20239;-69
2022/01/02 02:22:55;;;;;;;14.63;8.95;;;26.60;99.90;;;;;;5013573;28;20029;-69
2022/01/02 02:25:27;;;;;;;17.25;8.15;;;26.60;99.90;;;;;;5010335;28;20080;-69
2022/01/02 02:27:57;;;;;;;13.40;7.25;;;26.60;99.90;;;;;;5011919;28;20471;-69
2022/01/02 02:30:25;;;;;;;17.42;11.68;;;26.60;99.90;;;;;;5009899;28;20041;-69
2022/01/02 02:32:55;;;;;;;12.95;7.55;;;26.60;99.90;;;;;;5012032;28;20497;-70
2022/01/02 02:35:22;;;;;;;15.40;6.60;;;26.60;99.90;;;;;;5005654;28;20033;-70
2022/01/02 02:37:48;;;;;;;9.75;6.32;;;26.70;99.90;;;;;;5012046;28;20057;-70
2022/01/02 02:40:18;;;;;;;11.82;7.95;;;26.80;99.90;;;;;;5012830;28;20037;-70
2022/01/02 02:50:47;;;;;;;19.58;9.75;;;27.00;99.90;;;;;;5012183;28;20026;-69
2022/01/02 02:53:16;;;;;;;15.18;10.32;;;27.00;99.90;;;;;;5014487;28;20062;-70
2022/01/02 02:55:47;;;;;;;19.42;8.32;;;27.10;99.90;;;;;;5016901;28;20360;-72
2022/01/02 03:00:43;;;;;;;19.67;9.88;;;27.10;99.90;;;;;;5017071;28;20014;-71
2022/01/02 03:03:10;;;;;;;14.85;8.63;;;27.10;99.90;;;;;;5017178;28;20045;-69
2022/01/02 03:05:37;;;;;;;13.95;7.97;;;27.20;99.90;;;;;;5014040;28;20033;-70
2022/01/02 03:08:03;;;;;;;15.35;8.48;;;27.30;99.90;;;;;;5015807;28;20030;-69
2022/01/02 03:10:30;;;;;;;19.15;8.88;;;27.40;99.90;;;;;;5016198;28;20486;-69
2022/01/02 03:12:57;;;;;;;12.05;6.60;;;27.40;99.90;;;;;;5016021;28;20098;-69
2022/01/02 03:15:23;;;;;;;12.00;6.00;;;27.40;99.90;;;;;;5015713;28;20529;-72
2022/01/02 03:17:50;;;;;;;35.50;7.22;;;27.40;99.90;;;;;;5016295;28;20018;-68
2022/01/02 03:20:17;;;;;;;10.45;6.55;;;27.50;99.90;;;;;;5012515;28;20022;-69
2022/01/02 03:22:43;;;;;;;11.00;5.45;;;27.60;99.90;;;;;;5015356;28;20482;-71
2022/01/02 03:25:14;;;;;;;9.68;5.63;;;27.60;99.90;;;;;;5015853;28;20030;-69
2022/01/02 03:27:42;;;;;;;14.15;6.07;;;27.70;99.90;;;;;;5015224;28;20022;-69
2022/01/02 03:30:09;;;;;;;13.13;4.97;;;27.80;99.90;;;;;;5015478;28;20084;-72
2022/01/02 03:32:36;;;;;;;13.32;5.03;;;27.80;99.90;;;;;;5015704;28;20049;-71
2022/01/02 03:35:03;;;;;;;20.13;6.93;;;27.80;99.90;;;;;;5015855;28;20037;-71
2022/01/02 03:37:33;;;;;;;17.27;9.00;;;27.90;99.90;;;;;;5013078;28;20030;-69
2022/01/02 03:40:01;;;;;;;16.40;9.73;;;27.90;99.90;;;;;;5014044;28;20084;-69
2022/01/02 03:42:28;;;;;;;15.98;8.35;;;28.00;99.90;;;;;;5014336;28;20030;-70
2022/01/02 03:44:57;;;;;;;28.30;10.63;;;28.10;99.90;;;;;;5015388;28;20042;-69
2022/01/02 03:47:24;;;;;;;17.98;6.72;;;28.10;99.90;;;;;;5013867;28;20046;-69
2022/01/02 03:49:50;;;;;;;19.50;9.90;;;28.20;99.90;;;;;;5014525;28;20415;-71
2022/01/02 03:52:17;;;;;;;19.65;7.70;;;28.30;99.90;;;;;;5014759;28;20364;-69
2022/01/02 03:54:44;;;;;;;15.82;8.25;;;28.40;99.90;;;;;;5014560;28;20034;-69
2022/01/02 03:57:11;;;;;;;14.50;7.70;;;28.50;99.90;;;;;;5017425;28;20104;-68
2022/01/02 03:59:37;;;;;;;13.77;6.22;;;28.60;99.90;;;;;;5015575;28;20393;-68
2022/01/02 04:02:04;;;;;;;10.45;4.90;;;28.70;99.90;;;;;;5014825;28;20029;-70
2022/01/02 04:04:31;;;;;;;16.60;6.20;;;28.70;99.90;;;;;;5015429;28;20390;-69
2022/01/02 04:06:57;;;;;;;14.02;7.50;;;28.80;99.90;;;;;;5016179;28;20045;-69
2022/01/02 04:09:24;;;;;;;12.93;5.75;;;28.80;99.90;;;;;;5016966;28;20033;-68
2022/01/02 04:11:51;;;;;;;13.63;5.82;;;29.00;99.90;;;;;;5012719;28;20026;-67
2022/01/02 04:14:17;;;;;;;10.45;5.10;;;29.00;99.90;;;;;;5016739;28;20034;-66
2022/01/02 04:16:44;;;;;;;10.48;4.88;;;29.10;99.90;;;;;;4998151;28;20060;-68
2022/01/02 04:19:11;;;;;;;9.25;4.57;;;29.10;99.90;;;;;;5014349;28;20022;-67
2022/01/02 04:21:38;;;;;;;13.95;4.57;;;29.20;99.90;;;;;;5015050;28;20026;-70
2022/01/02 04:24:05;;;;;;;12.05;4.35;;;29.30;99.90;;;;;;5015291;28;20029;-69
2022/01/02 04:26:32;;;;;;;8.30;4.20;;;29.20;99.90;;;;;;5014501;28;20033;-69
2022/01/02 04:28:59;;;;;;;9.60;4.28;;;29.10;99.90;;;;;;5015098;28;20018;-67
2022/01/02 04:31:26;;;;;;;10.27;4.97;;;29.20;99.90;;;;;;5014309;28;20026;-68
2022/01/02 04:33:52;;;;;;;13.43;5.72;;;29.30;99.90;;;;;;5013745;28;20487;-69
2022/01/02 04:36:19;;;;;;;12.88;5.55;;;29.30;99.90;;;;;;5013397;28;20471;-69
2022/01/02 04:38:46;;;;;;;15.57;6.80;;;29.30;99.90;;;;;;5012281;28;20026;-68
2022/01/02 04:41:12;;;;;;;11.75;7.03;;;29.30;99.90;;;;;;5012005;28;20050;-68
2022/01/02 04:43:39;;;;;;;7.22;3.88;;;29.30;99.90;;;;;;5013620;28;20475;-70
2022/01/02 04:46:06;;;;;;;14.23;6.07;;;29.40;99.90;;;;;;5018118;28;20390;-70
2022/01/02 04:48:33;;;;;;;32.25;16.48;;;29.50;99.90;;;;;;5018554;28;20191;-68
2022/01/02 04:50:59;;;;;;;10.35;6.80;;;29.50;99.90;;;;;;5018120;28;20364;-68
2022/01/02 04:53:26;;;;;;;11.48;5.68;;;29.60;99.90;;;;;;5015145;28;20213;-68
2022/01/02 04:55:53;;;;;;;10.38;4.97;;;29.70;99.90;;;;;;5014255;28;20422;-68
2022/01/02 04:58:19;;;;;;;9.50;3.20;;;29.70;99.90;;;;;;5011857;28;20017;-70
2022/01/02 05:00:46;;;;;;;8.88;5.13;;;29.90;99.90;;;;;;5012544;28;20509;-70
2022/01/02 05:03:13;;;;;;;29.98;14.68;;;30.00;99.90;;;;;;5013327;28;20030;-70
2022/01/02 05:05:40;;;;;;;58.90;40.10;;;30.10;99.90;;;;;;5015555;28;20546;-72
2022/01/02 05:08:06;;;;;;;39.65;29.40;;;30.10;99.90;;;;;;5011738;28;20030;-69
2022/01/02 05:10:33;;;;;;;13.10;4.53;;;30.00;99.90;;;;;;5014959;28;20044;-71
2022/01/02 05:13:00;;;;;;;4.40;2.80;;;30.00;99.90;;;;;;5011164;28;20543;-70
2022/01/02 05:15:26;;;;;;;8.68;3.35;;;30.00;99.70;;;;;;5010087;28;20030;-70
2022/01/02 05:17:53;;;;;;;14.45;5.97;;;29.90;99.90;;;;;;5007711;28;20029;-70
2022/01/02 05:20:20;;;;;;;13.27;4.93;;;29.80;99.90;;;;;;5010453;28;20028;-70
2022/01/02 05:22:46;;;;;;;14.35;7.30;;;29.80;99.90;;;;;;5012728;28;20033;-70
2022/01/02 05:25:13;;;;;;;14.80;5.85;;;29.80;99.90;;;;;;5013736;28;20467;-70
2022/01/02 05:27:39;;;;;;;13.35;5.90;;;29.80;99.90;;;;;;5013720;28;20068;-70
2022/01/02 05:30:07;;;;;;;17.83;7.53;;;29.90;99.90;;;;;;5012061;28;20022;-71
2022/01/02 05:32:35;;;;;;;16.23;6.93;;;29.90;99.90;;;;;;5012760;28;20593;-71
2022/01/02 05:35:02;;;;;;;8.30;4.20;;;29.90;99.90;;;;;;5011903;28;20022;-69
2022/01/02 05:37:29;;;;;;;10.50;3.67;;;30.00;99.80;;;;;;5011994;28;20046;-72
2022/01/02 05:39:55;;;;;;;9.43;4.20;;;30.10;98.60;;;;;;5012081;28;20156;-73
2022/01/02 05:42:22;;;;;;;9.18;4.18;;;30.00;99.90;;;;;;5011888;28;20025;-70
2022/01/02 05:44:48;;;;;;;12.10;7.07;;;30.00;99.40;;;;;;5011886;28;20479;-69
2022/01/02 05:47:15;;;;;;;10.68;4.38;;;30.10;98.70;;;;;;5008481;28;20049;-69
2022/01/02 05:49:42;;;;;;;12.25;4.32;;;30.10;99.40;;;;;;5012169;28;20069;-75
2022/01/02 05:52:09;;;;;;;16.48;4.10;;;30.10;99.30;;;;;;5010878;28;20029;-69
2022/01/02 05:54:35;;;;;;;7.43;3.70;;;30.10;99.00;;;;;;5011436;28;20112;-70
2022/01/02 05:57:02;;;;;;;7.88;3.72;;;30.00;98.70;;;;;;4995277;28;20372;-70
2022/01/02 05:59:29;;;;;;;15.35;5.60;;;30.10;99.80;;;;;;5011867;28;20034;-69
2022/01/02 06:01:56;;;;;;;16.70;6.38;;;30.10;99.80;;;;;;5014309;28;20022;-73
2022/01/02 06:04:22;;;;;;;18.30;4.55;;;30.20;98.30;;;;;;5013903;28;20029;-69
2022/01/02 06:06:49;;;;;;;20.27;4.80;;;30.20;98.80;;;;;;5013839;28;20381;-72
2022/01/02 06:09:15;;;;;;;14.27;5.03;;;30.20;98.70;;;;;;5013795;28;20076;-70
2022/01/02 06:11:42;;;;;;;11.75;3.03;;;30.20;98.50;;;;;;5012897;28;20097;-69
2022/01/02 06:14:09;;;;;;;9.52;4.18;;;30.20;98.30;;;;;;5013654;28;20030;-73
2022/01/02 06:16:36;;;;;;;7.18;3.80;;;30.20;98.90;;;;;;5013573;28;20021;-69
2022/01/02 06:19:02;;;;;;;149.52;107.28;;;30.30;98.70;;;;;;5013174;28;20017;-69
2022/01/02 06:21:29;;;;;;;13.65;6.22;;;30.30;99.20;;;;;;5013348;28;20040;-69
2022/01/02 06:23:56;;;;;;;10.35;4.88;;;30.30;99.30;;;;;;5012976;28;20040;-69
2022/01/02 06:26:23;;;;;;;7.57;4.65;;;30.30;98.30;;;;;;5012039;28;20022;-69
2022/01/02 06:28:49;;;;;;;7.95;3.83;;;30.30;98.10;;;;;;5013913;28;20375;-69
2022/01/02 06:31:16;;;;;;;8.95;3.90;;;30.30;96.40;;;;;;5013987;28;20026;-69
2022/01/02 06:33:44;;;;;;;13.32;3.47;;;30.30;96.40;;;;;;5013575;28;20446;-69
2022/01/02 06:36:10;;;;;;;18.50;4.80;;;30.30;96.50;;;;;;5013627;28;20029;-70
2022/01/02 06:38:37;;;;;;;13.23;3.97;;;30.30;97.00;;;;;;5013971;28;20021;-69
2022/01/02 06:41:04;;;;;;;27.17;19.45;;;30.40;96.30;;;;;;5013396;28;20057;-70
2022/01/02 06:43:32;;;;;;;22.67;12.13;;;30.40;96.50;;;;;;5013235;28;20022;-70
2022/01/02 06:45:59;;;;;;;13.57;6.60;;;30.50;95.50;;;;;;5013823;28;20030;-70
2022/01/02 06:48:29;;;;;;;14.43;3.40;;;30.40;96.40;;;;;;5013291;28;20124;-70
2022/01/02 06:50:55;;;;;;;8.65;3.70;;;30.40;95.70;;;;;;5013534;28;20053;-68
2022/01/02 06:53:22;;;;;;;8.02;3.20;;;30.40;95.60;;;;;;5013826;28;20030;-71
2022/01/02 06:55:49;;;;;;;8.38;3.55;;;30.50;94.60;;;;;;5017284;28;20125;-71
2022/01/02 06:58:16;;;;;;;28.27;11.65;;;30.50;94.80;;;;;;5014241;28;20022;-70
2022/01/02 07:00:43;;;;;;;14.23;6.60;;;30.60;95.80;;;;;;5013057;28;20022;-70
2022/01/02 07:03:10;;;;;;;31.70;14.90;;;30.50;95.80;;;;;;5013353;28;20029;-70
2022/01/02 07:05:37;;;;;;;35.85;18.60;;;30.60;94.40;;;;;;5014766;28;20037;-70
2022/01/02 07:08:04;;;;;;;18.85;10.50;;;30.60;95.20;;;;;;5013039;28;20033;-70
2022/01/02 07:10:30;;;;;;;58.72;31.92;;;30.60;95.00;;;;;;5012704;28;20022;-70
2022/01/02 07:12:57;;;;;;;46.53;26.92;;;30.70;94.40;;;;;;5012515;28;20026;-70
2022/01/02 07:15:24;;;;;;;61.67;34.58;;;30.70;94.30;;;;;;5011230;28;20034;-70
2022/01/02 07:17:51;;;;;;;67.85;38.22;;;30.70;94.10;;;;;;5016083;28;20017;-70
2022/01/02 07:20:17;;;;;;;42.45;22.13;;;30.60;94.70;;;;;;5009236;28;20022;-70
2022/01/02 07:22:46;;;;;;;13.05;6.13;;;30.60;94.40;;;;;;5013444;28;20018;-70
2022/01/02 07:25:16;;;;;;;15.13;5.65;;;30.70;94.20;;;;;;5012452;28;20029;-70
2022/01/02 07:27:42;;;;;;;9.23;4.50;;;30.70;95.20;;;;;;5010550;28;20037;-70
2022/01/02 07:30:10;;;;;;;14.68;6.97;;;30.60;95.40;;;;;;5011815;28;20215;-70
2022/01/02 07:32:37;;;;;;;8.57;4.82;;;30.70;94.70;;;;;;5011937;28;20061;-70
2022/01/02 07:35:06;;;;;;;15.05;9.93;;;30.70;94.40;;;;;;5012255;28;20022;-69
2022/01/02 07:37:36;;;;;;;15.77;7.47;;;30.80;94.70;;;;;;5015820;28;20482;-70
2022/01/02 07:40:05;;;;;;;12.07;6.03;;;30.80;94.20;;;;;;5015813;28;20018;-71
2022/01/02 07:42:32;;;;;;;5.20;3.80;;;30.80;95.00;;;;;;5015993;28;20091;-70
2022/01/02 07:44:58;;;;;;;60.13;34.33;;;30.70;95.00;;;;;;5015937;28;20018;-70
2022/01/02 07:47:25;;;;;;;39.35;18.67;;;30.70;93.70;;;;;;5016359;28;20177;-69
2022/01/02 07:49:52;;;;;;;19.23;9.93;;;30.70;94.10;;;;;;5016047;28;20546;-69
2022/01/02 07:52:19;;;;;;;12.27;6.28;;;30.80;94.70;;;;;;5015987;28;20057;-70
2022/01/02 07:54:45;;;;;;;8.27;5.28;;;30.80;94.10;;;;;;5015650;28;20030;-70
2022/01/02 07:57:12;;;;;;;22.58;10.73;;;30.70;95.20;;;;;;5015981;28;20017;-69
2022/01/02 07:59:39;;;;;;;39.13;23.38;;;30.70;94.80;;;;;;5016137;28;20073;-69
2022/01/02 08:02:05;;;;;;;33.97;19.40;;;30.80;94.60;;;;;;5015875;28;20014;-70
2022/01/02 08:04:32;;;;;;;16.63;9.52;;;30.80;94.00;;;;;;5015585;28;20514;-69
2022/01/02 08:06:59;;;;;;;26.67;15.75;;;30.80;94.10;;;;;;5015683;28;20425;-70
2022/01/02 08:09:25;;;;;;;7.78;4.35;;;30.80;94.60;;;;;;5015705;28;20079;-70
2022/01/02 08:11:52;;;;;;;12.48;4.85;;;30.80;93.70;;;;;;5014839;28;20068;-69
2022/01/02 08:14:19;;;;;;;17.48;11.38;;;30.80;94.40;;;;;;5015416;28;20471;-70
2022/01/02 08:16:46;;;;;;;25.08;14.18;;;30.80;94.60;;;;;;5015720;28;20014;-70
2022/01/02 08:19:13;;;;;;;30.70;14.73;;;30.80;95.00;;;;;;5014772;28;20022;-69
2022/01/02 08:21:40;;;;;;;16.08;8.35;;;30.70;94.50;;;;;;5015363;28;20022;-73
2022/01/02 08:24:07;;;;;;;15.75;8.60;;;30.70;95.40;;;;;;4997732;28;20025;-70
2022/01/02 08:26:33;;;;;;;27.52;17.52;;;30.80;94.20;;;;;;5015098;28;20010;-69
2022/01/02 08:29:00;;;;;;;19.75;14.75;;;30.70;94.10;;;;;;5015798;28;20486;-69
2022/01/02 08:31:31;;;;;;;25.90;18.30;;;30.70;94.40;;;;;;5015463;28;20017;-69
2022/01/02 08:33:58;;;;;;;19.00;13.68;;;30.70;95.00;;;;;;5013135;28;20458;-69
2022/01/02 08:36:26;;;;;;;14.48;9.43;;;30.70;95.70;;;;;;5015053;28;20083;-70
2022/01/02 08:38:53;;;;;;;23.05;14.98;;;30.70;95.20;;;;;;5015707;28;20029;-69
2022/01/02 08:41:20;;;;;;;74.55;57.13;;;30.70;95.00;;;;;;5015623;28;20022;-69
2022/01/02 08:43:46;;;;;;;139.80;87.40;;;30.70;95.40;;;;;;5015465;28;20391;-70
2022/01/02 08:46:13;;;;;;;61.22;37.20;;;30.70;95.60;;;;;;5015156;28;20022;-70
2022/01/02 08:48:40;;;;;;;71.13;51.25;;;30.70;95.90;;;;;;5013875;28;20072;-70
2022/01/02 08:51:07;;;;;;;48.05;35.72;;;30.70;95.50;;;;;;5014646;28;20037;-71
2022/01/02 08:53:34;;;;;;;40.33;25.38;;;30.70;95.20;;;;;;5014906;28;20049;-70
2022/01/02 08:56:01;;;;;;;28.48;13.48;;;30.70;96.30;;;;;;5014970;28;20117;-69
2022/01/02 08:58:28;;;;;;;12.93;8.95;;;30.70;95.40;;;;;;5014804;28;20079;-70
2022/01/02 09:00:56;;;;;;;17.10;9.00;;;30.70;95.70;;;;;;4994606;28;20014;-69
2022/01/02 09:03:24;;;;;;;10.95;7.95;;;30.60;95.40;;;;;;5014610;28;20045;-70
2022/01/02 09:05:50;;;;;;;12.18;7.30;;;30.60;95.70;;;;;;5014786;28;20018;-70
2022/01/02 09:08:17;;;;;;;21.95;8.70;;;30.50;95.50;;;;;;5014746;28;20044;-70
2022/01/02 09:10:44;;;;;;;16.17;9.75;;;30.50;95.70;;;;;;5014803;28;20026;-70
2022/01/02 09:13:11;;;;;;;13.68;6.88;;;30.50;95.80;;;;;;5014760;28;20104;-70
2022/01/02 09:15:38;;;;;;;13.05;7.25;;;30.50;95.80;;;;;;5014551;28;20478;-69
2022/01/02 09:18:05;;;;;;;204.75;146.32;;;30.50;95.30;;;;;;5014745;28;20033;-70
2022/01/02 09:20:32;;;;;;;33.08;24.33;;;30.50;94.90;;;;;;5014775;28;20018;-70
2022/01/02 09:22:59;;;;;;;12.70;7.68;;;30.50;95.20;;;;;;5014808;28;20088;-70
2022/01/02 09:25:26;;;;;;;21.13;12.60;;;30.40;95.40;;;;;;5013853;28;20030;-70
2022/01/02 09:27:53;;;;;;;46.00;17.95;;;30.40;96.10;;;;;;5014680;28;20064;-69
2022/01/02 09:30:20;;;;;;;25.08;13.88;;;30.40;96.40;;;;;;5014673;28;20053;-69
2022/01/02 09:32:47;;;;;;;18.95;12.02;;;30.40;96.40;;;;;;5014541;28;20022;-70
2022/01/02 09:35:14;;;;;;;20.42;10.98;;;30.40;96.00;;;;;;5015122;28;20026;-70
2022/01/02 09:37:40;;;;;;;14.30;6.97;;;30.40;96.40;;;;;;5014425;28;20037;-69
2022/01/02 09:40:08;;;;;;;12.68;6.38;;;30.40;96.20;;;;;;5014476;28;20057;-70
2022/01/02 09:42:37;;;;;;;13.25;8.93;;;30.30;96.70;;;;;;5014181;28;20537;-70
2022/01/02 09:45:05;;;;;;;13.10;6.97;;;30.30;96.70;;;;;;5013403;28;20038;-70
2022/01/02 09:47:32;;;;;;;16.75;7.13;;;30.30;96.50;;;;;;5012835;28;20087;-70
2022/01/02 09:50:08;;;;;;;13.80;7.28;;;30.30;97.30;;;;;;5013127;28;20052;-70
2022/01/02 09:52:35;;;;;;;13.60;7.00;;;30.30;97.10;;;;;;5013287;28;20026;-70
2022/01/02 09:55:02;;;;;;;11.15;6.35;;;30.30;97.10;;;;;;5012623;28;20096;-69
2022/01/02 09:57:29;;;;;;;15.73;6.43;;;30.30;97.40;;;;;;5009600;28;20030;-70
2022/01/02 09:59:56;;;;;;;10.98;5.90;;;30.30;97.60;;;;;;5008007;28;20026;-69
2022/01/02 10:02:23;;;;;;;10.85;6.32;;;30.30;97.50;;;;;;5011816;28;20375;-71
2022/01/02 10:05:02;;;;;;;12.07;7.38;;;30.20;97.30;;;;;;5010309;28;20048;-70
2022/01/02 10:07:33;;;;;;;15.65;9.90;;;30.20;98.00;;;;;;5013499;28;20072;-69
2022/01/02 10:10:08;;;;;;;28.17;17.48;;;30.10;97.90;;;;;;5011804;28;20544;-71
2022/01/02 10:12:35;;;;;;;80.18;57.22;;;30.10;97.80;;;;;;5013996;28;20041;-70
2022/01/02 10:15:12;;;;;;;323.48;225.73;;;30.10;98.00;;;;;;5013455;28;20105;-70
2022/01/02 10:18:00;;;;;;;220.15;172.90;;;30.10;98.30;;;;;;5008031;28;20104;-69
2022/01/02 10:20:32;;;;;;;26.67;15.27;;;30.20;98.50;;;;;;5007127;28;20152;-70
2022/01/02 10:23:03;;;;;;;163.20;127.10;;;30.20;98.60;;;;;;5012966;28;20387;-71
2022/01/02 10:25:49;;;;;;;18.87;13.00;;;30.10;98.30;;;;;;5010992;28;20604;-70
2022/01/02 10:28:26;;;;;;;22.08;13.88;;;30.10;98.40;;;;;;5009008;28;20033;-69
2022/01/02 10:31:09;;;;;;;62.72;35.53;;;30.10;98.60;;;;;;5009661;28;20299;-71
2022/01/02 10:33:43;;;;;;;29.15;15.93;;;30.10;98.90;;;;;;5006984;28;20040;-68
2022/01/02 10:36:10;;;;;;;28.88;19.30;;;30.10;99.00;;;;;;5011365;28;20033;-71
2022/01/02 10:38:36;;;;;;;35.83;24.27;;;30.00;99.00;;;;;;5010094;28;20034;-68
2022/01/02 10:41:03;;;;;;;31.73;19.73;;;30.00;99.00;;;;;;4993500;28;20096;-73
2022/01/02 10:43:33;;;;;;;32.08;17.77;;;30.00;98.90;;;;;;5006835;28;20042;-70
2022/01/02 10:46:03;;;;;;;31.08;17.90;;;30.00;99.50;;;;;;5009958;28;20030;-71
2022/01/02 10:48:36;;;;;;;25.67;14.32;;;30.00;99.30;;;;;;5011593;28;20042;-68
2022/01/02 10:51:05;;;;;;;27.80;15.27;;;29.90;98.70;;;;;;5012773;28;20040;-69
2022/01/02 10:53:34;;;;;;;27.85;15.60;;;29.90;99.30;;;;;;5012453;28;20030;-69
2022/01/02 10:56:02;;;;;;;27.23;15.43;;;29.90;99.90;;;;;;5013231;28;20056;-69
2022/01/02 10:58:29;;;;;;;26.42;13.65;;;29.90;99.50;;;;;;5013623;28;20093;-70
2022/01/02 11:01:04;;;;;;;23.90;14.07;;;29.80;99.90;;;;;;5011142;28;20355;-70
2022/01/02 11:03:31;;;;;;;27.98;17.67;;;29.80;99.90;;;;;;5012253;28;20041;-69
2022/01/02 11:06:05;;;;;;;36.72;21.63;;;29.70;99.40;;;;;;5011056;28;20364;-69
2022/01/02 11:08:35;;;;;;;34.13;22.48;;;29.60;99.90;;;;;;5009547;28;20410;-69
2022/01/02 11:11:05;;;;;;;48.42;32.95;;;29.60;99.90;;;;;;5013491;28;20030;-69
2022/01/02 11:13:33;;;;;;;97.03;55.88;;;29.60;99.90;;;;;;5017071;28;20116;-69
2022/01/02 11:16:02;;;;;;;124.45;60.35;;;29.50;99.90;;;;;;5015279;28;20474;-68
2022/01/02 11:18:32;;;;;;;134.50;68.88;;;29.40;99.90;;;;;;5014717;28;20116;-68
2022/01/02 11:21:01;;;;;;;139.07;72.18;;;29.40;99.90;;;;;;5015990;28;20033;-68
2022/01/02 11:23:32;;;;;;;125.80;63.92;;;29.50;99.90;;;;;;5016162;28;20029;-68
2022/01/02 11:26:22;;;;;;;177.97;85.33;;;29.50;99.90;;;;;;5016087;28;20644;-68
2022/01/02 11:28:50;;;;;;;198.43;91.85;;;29.40;99.90;;;;;;5015016;28;20505;-68
2022/01/02 11:31:37;;;;;;;347.20;209.98;;;29.40;99.90;;;;;;5014508;28;20382;-68
2022/01/02 11:34:23;;;;;;;249.63;152.02;;;29.40;99.90;;;;;;5014592;28;20034;-69
2022/01/02 11:36:51;;;;;;;220.45;131.30;;;29.40;99.90;;;;;;5014577;28;20037;-68
2022/01/02 11:39:18;;;;;;;184.07;103.53;;;29.40;99.90;;;;;;5011791;28;20017;-70
2022/01/02 11:41:51;;;;;;;173.98;101.18;;;29.40;99.90;;;;;;5012360;28;20029;-69
2022/01/02 11:44:39;;;;;;;243.77;152.70;;;29.40;99.90;;;;;;5013320;28;20026;-69
2022/01/02 11:47:06;;;;;;;225.35;129.65;;;29.40;99.90;;;;;;5015066;28;20130;-68
2022/01/02 11:49:41;;;;;;;211.23;121.05;;;29.30;99.90;;;;;;5012894;28;20025;-69
2022/01/02 11:52:19;;;;;;;172.73;102.25;;;29.30;99.90;;;;;;5014056;28;20093;-69
2022/01/02 11:54:48;;;;;;;175.40;100.13;;;29.30;99.90;;;;;;5014448;28;20058;-70
2022/01/02 11:57:15;;;;;;;217.15;116.50;;;29.30;99.90;;;;;;5015068;28;20026;-69
2022/01/02 11:59:42;;;;;;;185.75;113.80;;;29.20;99.90;;;;;;5010906;28;20511;-68
2022/01/02 12:02:09;;;;;;;158.63;94.40;;;29.10;99.90;;;;;;5015018;28;20097;-70
2022/01/02 12:05:03;;;;;;;135.77;80.70;;;29.10;99.90;;;;;;5015156;28;20080;-70
2022/01/02 12:10:17;;;;;;;103.50;58.30;;;29.10;99.90;;;;;;5014055;28;20037;-78
2022/01/02 12:12:58;;;;;;;82.80;51.05;;;29.20;99.90;;;;;;5013351;28;20088;-68
2022/01/02 12:15:34;;;;;;;92.95;54.65;;;29.20;99.90;;;;;;5014113;28;20048;-69
2022/01/02 12:18:25;;;;;;;88.60;53.28;;;29.20;99.90;;;;;;5014761;28;20466;-69
2022/01/02 12:21:00;;;;;;;103.97;57.22;;;29.10;99.90;;;;;;5014031;28;20034;-69
2022/01/02 12:23:36;;;;;;;109.07;64.10;;;29.10;99.90;;;;;;5011781;28;20114;-68
2022/01/02 12:26:06;;;;;;;117.22;67.22;;;29.10;99.90;;;;;;5009665;28;20389;-69
2022/01/02 12:28:50;;;;;;;124.18;70.80;;;29.00;99.90;;;;;;5012872;28;20045;-68
2022/01/02 12:31:18;;;;;;;120.07;68.55;;;29.00;99.90;;;;;;5012721;28;20033;-69
2022/01/02 12:33:45;;;;;;;118.53;68.65;;;29.00;99.90;;;;;;4995218;28;20050;-69
2022/01/02 12:36:15;;;;;;;129.45;76.78;;;29.00;99.90;;;;;;5014755;28;20041;-68
2022/01/02 12:38:47;;;;;;;132.00;81.07;;;28.90;99.90;;;;;;5014667;28;20032;-69
2022/01/02 12:41:15;;;;;;;119.10;75.25;;;29.00;99.90;;;;;;5013893;28;20026;-71
2022/01/02 12:43:54;;;;;;;128.90;76.20;;;29.00;99.90;;;;;;5013011;28;20022;-72
2022/01/02 12:46:33;;;;;;;117.57;68.97;;;28.90;99.90;;;;;;5014217;28;20467;-73
2022/01/02 12:49:01;;;;;;;147.20;80.68;;;28.70;99.90;;;;;;5012595;28;20042;-69
2022/01/02 12:51:33;;;;;;;133.57;78.15;;;28.70;99.90;;;;;;5014739;28;20033;-69
2022/01/02 12:54:04;;;;;;;;;;;28.60;99.90;;;;;;5010995;28;20034;-69